Time;durP1;ratioP1;P1;durP2;ratioP2;P2;SDS_P1;SDS_P2;PMS_P1;PMS_P2;Temp;Humidity;BMP_temperature;BMP_pressure;BME280_temperature;BME280_humidity;BME280_pressure;Samples;Min_cycle;Max_cycle;Signal;HPM_P1;HPM_P2
2021/06/29 00:02:04;;;;;;;7.40;6.80;;;24.50;76.20;;;;;;5093719;28;20455;-67
2021/06/29 00:04:31;;;;;;;9.57;6.13;;;24.50;76.50;;;;;;5093193;28;20933;-67
2021/06/29 00:06:58;;;;;;;6.63;5.57;;;24.50;76.60;;;;;;5093101;28;20997;-67
2021/06/29 00:09:24;;;;;;;8.97;6.17;;;24.50;76.70;;;;;;5093477;28;20471;-67
2021/06/29 00:11:51;;;;;;;8.30;6.37;;;24.50;76.80;;;;;;5096484;28;20498;-67
2021/06/29 00:14:18;;;;;;;7.20;6.60;;;24.50;76.80;;;;;;5097467;28;20477;-67
2021/06/29 00:16:45;;;;;;;7.43;6.70;;;24.40;76.80;;;;;;5096690;28;20846;-67
2021/06/29 00:19:13;;;;;;;8.90;6.13;;;24.40;77.00;;;;;;5097648;28;20430;-67
2021/06/29 00:21:40;;;;;;;6.67;6.07;;;24.40;77.50;;;;;;5097121;28;20446;-67
2021/06/29 00:24:07;;;;;;;14.77;6.60;;;24.40;78.00;;;;;;5096841;28;20925;-66
2021/06/29 00:26:34;;;;;;;21.27;8.00;;;24.40;77.80;;;;;;5097279;28;20459;-67
2021/06/29 00:29:01;;;;;;;22.97;6.93;;;24.40;77.10;;;;;;5097258;28;20443;-67
2021/06/29 00:31:27;;;;;;;27.73;10.83;;;24.30;76.90;;;;;;5096913;28;20450;-65
2021/06/29 00:33:54;;;;;;;24.20;12.90;;;24.10;80.40;;;;;;5097431;28;20450;-66
2021/06/29 00:36:22;;;;;;;22.83;11.67;;;23.60;84.30;;;;;;5096449;28;20836;-67
2021/06/29 00:38:49;;;;;;;13.20;8.47;;;23.30;85.90;;;;;;5096660;28;20486;-67
2021/06/29 00:41:16;;;;;;;11.63;5.70;;;23.10;86.80;;;;;;5096370;28;20956;-67
2021/06/29 00:43:47;;;;;;;6.30;5.60;;;22.90;87.60;;;;;;5097084;28;20932;-68
2021/06/29 00:46:14;;;;;;;6.47;4.20;;;22.90;88.30;;;;;;5096649;28;20516;-69
2021/06/29 00:48:41;;;;;;;7.10;4.40;;;22.60;86.60;;;;;;5096490;28;20440;-68
2021/06/29 00:51:08;;;;;;;12.63;7.73;;;22.30;88.20;;;;;;5096568;28;20447;-68
2021/06/29 00:53:37;;;;;;;8.70;6.23;;;22.00;90.40;;;;;;5096189;28;20983;-68
2021/06/29 00:56:06;;;;;;;10.77;5.90;;;21.90;90.80;;;;;;5096725;28;20864;-68
2021/06/29 00:58:32;;;;;;;4.13;3.83;;;21.90;91.10;;;;;;5096508;28;20454;-68
2021/06/29 01:00:59;;;;;;;3.57;3.27;;;21.80;90.70;;;;;;5096359;28;20439;-68
2021/06/29 01:03:26;;;;;;;3.33;2.80;;;21.80;90.80;;;;;;5096226;28;20444;-68
2021/06/29 01:05:53;;;;;;;3.13;2.40;;;21.90;90.70;;;;;;5096472;28;20472;-68
2021/06/29 01:08:20;;;;;;;2.50;2.03;;;22.00;90.40;;;;;;5096148;28;20550;-68
2021/06/29 01:10:49;;;;;;;2.33;2.13;;;21.90;90.20;;;;;;5095933;28;20450;-68
2021/06/29 01:13:29;;;;;;;2.87;2.40;;;21.90;90.20;;;;;;5096183;28;20476;-68
2021/06/29 01:15:57;;;;;;;3.03;2.73;;;21.90;90.20;;;;;;5096271;28;20463;-68
2021/06/29 01:18:24;;;;;;;3.37;3.07;;;21.80;90.10;;;;;;5096471;28;20443;-68
2021/06/29 01:20:53;;;;;;;4.90;4.40;;;21.80;90.30;;;;;;5095887;28;20440;-68
2021/06/29 01:23:21;;;;;;;5.90;5.30;;;21.80;90.60;;;;;;5096199;28;20454;-68
2021/06/29 01:26:05;;;;;;;5.47;5.00;;;21.90;90.50;;;;;;5096122;28;20464;-68
2021/06/29 01:28:35;;;;;;;8.47;7.77;;;21.90;90.40;;;;;;5095824;28;20424;-68
2021/06/29 01:31:05;;;;;;;8.63;7.83;;;22.00;90.20;;;;;;5096213;28;20782;-68
2021/06/29 01:33:32;;;;;;;9.47;8.63;;;22.10;90.00;;;;;;5095748;28;20584;-68
2021/06/29 01:36:00;;;;;;;10.77;9.87;;;22.10;89.10;;;;;;5095772;28;20832;-68
2021/06/29 01:38:27;;;;;;;11.20;10.20;;;22.10;89.10;;;;;;5095678;28;20447;-68
2021/06/29 01:40:54;;;;;;;10.43;9.53;;;22.20;89.00;;;;;;5095599;28;20463;-68
2021/06/29 01:43:24;;;;;;;10.60;9.33;;;22.20;88.50;;;;;;5095172;28;20841;-68
2021/06/29 01:45:53;;;;;;;9.63;8.73;;;22.30;87.80;;;;;;5095451;28;20830;-69
2021/06/29 01:48:22;;;;;;;11.30;10.13;;;22.40;87.40;;;;;;5095470;28;20448;-68
2021/06/29 01:50:49;;;;;;;9.50;8.80;;;22.40;86.80;;;;;;5095353;28;20451;-68
2021/06/29 01:53:17;;;;;;;10.60;9.60;;;22.50;86.20;;;;;;5095672;28;20495;-68
2021/06/29 01:55:44;;;;;;;10.40;9.40;;;22.40;85.60;;;;;;5095700;28;20468;-69
2021/06/29 01:58:13;;;;;;;10.07;8.97;;;22.50;85.40;;;;;;5095169;28;20443;-68
2021/06/29 02:00:40;;;;;;;8.53;7.70;;;22.50;85.00;;;;;;5095205;28;20447;-68
2021/06/29 02:03:07;;;;;;;7.97;7.27;;;22.50;84.80;;;;;;5095310;28;20432;-68
2021/06/29 02:05:34;;;;;;;7.57;6.97;;;22.50;84.50;;;;;;5094961;28;20450;-69
2021/06/29 02:08:00;;;;;;;8.40;7.70;;;22.60;84.50;;;;;;5094615;28;20456;-69
2021/06/29 02:10:29;;;;;;;8.53;7.83;;;22.50;84.20;;;;;;5094893;28;20444;-69
2021/06/29 02:12:56;;;;;;;9.27;8.00;;;22.60;84.10;;;;;;5094904;28;20471;-68
2021/06/29 02:15:24;;;;;;;7.83;7.23;;;22.60;83.70;;;;;;5094804;28;20476;-69
2021/06/29 02:17:50;;;;;;;9.70;8.70;;;22.60;83.40;;;;;;5094900;28;20440;-69
2021/06/29 02:20:18;;;;;;;7.63;7.03;;;22.60;83.20;;;;;;5094436;28;20450;-68
2021/06/29 02:22:46;;;;;;;6.33;5.83;;;22.50;83.20;;;;;;5094990;28;20439;-68
2021/06/29 02:25:13;;;;;;;7.40;6.70;;;22.50;83.30;;;;;;5094714;28;20517;-68
2021/06/29 02:27:41;;;;;;;9.40;8.70;;;22.50;83.80;;;;;;5095601;28;20460;-68
2021/06/29 02:30:27;;;;;;;7.43;6.87;;;22.50;84.10;;;;;;5094820;28;20764;-68
2021/06/29 02:32:54;;;;;;;8.23;7.53;;;22.50;84.00;;;;;;5093723;28;20483;-68
2021/06/29 02:35:20;;;;;;;8.93;8.03;;;22.50;83.70;;;;;;5094483;28;20806;-68
2021/06/29 02:37:47;;;;;;;8.43;7.63;;;22.50;83.30;;;;;;5094239;28;20924;-68
2021/06/29 02:40:15;;;;;;;9.27;8.30;;;22.40;82.80;;;;;;5094546;28;20444;-68
2021/06/29 02:42:43;;;;;;;7.50;6.80;;;22.40;82.70;;;;;;5094418;28;20429;-68
2021/06/29 02:45:16;;;;;;;7.63;6.90;;;22.40;83.10;;;;;;5094478;28;20451;-68
2021/06/29 02:47:43;;;;;;;9.80;8.90;;;22.30;83.10;;;;;;5094521;28;20460;-68
2021/06/29 02:50:11;;;;;;;9.50;8.70;;;22.40;83.20;;;;;;5094064;28;20481;-68
2021/06/29 02:52:38;;;;;;;12.70;11.00;;;22.40;83.10;;;;;;5094149;28;20479;-68
2021/06/29 02:55:07;;;;;;;11.57;10.57;;;22.30;84.20;;;;;;5094255;28;20450;-69
2021/06/29 02:57:34;;;;;;;13.33;11.93;;;22.30;84.60;;;;;;5094171;28;20460;-69
2021/06/29 03:00:04;;;;;;;11.17;10.17;;;22.40;85.30;;;;;;5094109;28;20975;-68
2021/06/29 03:02:31;;;;;;;12.00;10.57;;;22.30;85.20;;;;;;5094811;28;20443;-69
2021/06/29 03:04:58;;;;;;;13.90;12.70;;;22.30;84.80;;;;;;5094057;28;20448;-69
2021/06/29 03:07:24;;;;;;;13.40;12.00;;;22.30;84.90;;;;;;5093879;28;20484;-69
2021/06/29 03:09:51;;;;;;;12.03;11.00;;;22.30;85.70;;;;;;5093949;28;20817;-68
2021/06/29 03:12:18;;;;;;;10.00;9.20;;;22.20;85.80;;;;;;5093549;28;20901;-69
2021/06/29 03:14:45;;;;;;;12.53;11.33;;;22.20;85.30;;;;;;5093524;28;20969;-69
2021/06/29 03:17:15;;;;;;;10.33;9.53;;;22.20;85.20;;;;;;5093816;28;20467;-68
2021/06/29 03:19:41;;;;;;;16.40;13.17;;;22.20;85.20;;;;;;5094141;28;20456;-68
2021/06/29 03:22:08;;;;;;;11.13;9.57;;;22.20;85.70;;;;;;5093822;28;20447;-68
2021/06/29 03:24:35;;;;;;;15.80;11.20;;;22.20;86.00;;;;;;5093862;28;20474;-68
2021/06/29 03:27:02;;;;;;;15.80;12.20;;;22.20;86.90;;;;;;5093758;28;20464;-68
2021/06/29 03:29:28;;;;;;;19.67;13.40;;;22.20;87.30;;;;;;5093774;28;20448;-68
2021/06/29 03:31:55;;;;;;;16.93;14.10;;;22.20;87.90;;;;;;5093609;28;20454;-68
2021/06/29 03:34:23;;;;;;;17.27;13.00;;;22.10;88.40;;;;;;5093640;28;20479;-68
2021/06/29 03:36:50;;;;;;;17.93;15.50;;;22.10;88.60;;;;;;5093416;28;20976;-69
2021/06/29 03:42:39;;;;;;;21.70;16.87;;;22.00;89.20;;;;;;5094189;28;20367;-68
2021/06/29 03:45:07;;;;;;;18.00;15.80;;;22.00;89.40;;;;;;5095522;28;20443;-69
2021/06/29 03:47:33;;;;;;;20.00;15.80;;;22.00;90.00;;;;;;5097641;28;20463;-68
2021/06/29 03:50:02;;;;;;;17.53;15.73;;;22.00;90.10;;;;;;5097611;28;20440;-68
2021/06/29 03:52:28;;;;;;;20.30;15.10;;;22.00;90.10;;;;;;5097555;28;20448;-68
2021/06/29 03:54:55;;;;;;;16.17;14.47;;;22.00;90.00;;;;;;5097534;28;20439;-68
2021/06/29 03:57:22;;;;;;;21.43;15.70;;;22.00;90.00;;;;;;5097421;28;20508;-69
2021/06/29 03:59:49;;;;;;;17.40;15.70;;;22.00;90.00;;;;;;5097697;28;20443;-68
2021/06/29 04:02:16;;;;;;;21.60;15.97;;;22.00;89.80;;;;;;5097668;28;20450;-68
2021/06/29 04:04:43;;;;;;;21.03;16.17;;;22.10;89.80;;;;;;5097912;28;20451;-68
2021/06/29 04:07:11;;;;;;;22.03;14.53;;;22.00;89.70;;;;;;5096795;28;21046;-68
2021/06/29 04:09:38;;;;;;;16.97;14.87;;;22.00;89.40;;;;;;5097296;28;20537;-68
2021/06/29 04:12:06;;;;;;;17.87;12.70;;;22.00;89.40;;;;;;5097152;28;20948;-68
2021/06/29 04:14:33;;;;;;;12.53;10.67;;;22.00;89.50;;;;;;5097126;28;20487;-68
2021/06/29 04:16:59;;;;;;;13.10;10.50;;;22.00;88.90;;;;;;5096890;28;20835;-68
2021/06/29 04:19:26;;;;;;;13.13;9.77;;;22.10;88.60;;;;;;5096737;28;20933;-68
2021/06/29 04:21:53;;;;;;;12.10;7.23;;;22.00;88.00;;;;;;5097268;28;20447;-70
2021/06/29 04:24:21;;;;;;;10.37;7.90;;;22.00;88.00;;;;;;5097026;28;20522;-69
2021/06/29 04:26:48;;;;;;;15.87;5.83;;;22.00;88.00;;;;;;5096869;28;20463;-68
2021/06/29 04:29:14;;;;;;;9.23;5.60;;;22.00;87.50;;;;;;5096922;28;20430;-68
2021/06/29 04:31:41;;;;;;;7.07;4.40;;;22.00;87.30;;;;;;5096824;28;20450;-68
2021/06/29 04:34:08;;;;;;;7.90;3.90;;;22.00;87.10;;;;;;5096398;28;20980;-69
2021/06/29 04:36:35;;;;;;;7.47;4.23;;;22.00;86.50;;;;;;5096618;28;20459;-69
2021/06/29 04:39:01;;;;;;;5.07;3.60;;;22.00;86.60;;;;;;5096372;28;20485;-69
2021/06/29 04:41:29;;;;;;;8.20;3.50;;;22.00;86.40;;;;;;5096606;28;20810;-69
2021/06/29 04:43:56;;;;;;;4.40;3.70;;;22.00;86.10;;;;;;5096334;28;20817;-68
2021/06/29 04:46:23;;;;;;;7.60;4.00;;;22.10;85.60;;;;;;5096479;28;20463;-69
2021/06/29 04:48:49;;;;;;;6.70;3.47;;;22.10;85.80;;;;;;5096504;28;20443;-68
2021/06/29 04:51:16;;;;;;;6.50;3.70;;;22.10;85.70;;;;;;5096463;28;20450;-69
2021/06/29 04:53:43;;;;;;;11.43;3.60;;;22.10;85.50;;;;;;5095987;28;20860;-69
2021/06/29 04:56:17;;;;;;;16.60;3.93;;;22.10;85.50;;;;;;5095307;28;20491;-69
2021/06/29 04:58:46;;;;;;;6.27;3.73;;;22.10;85.60;;;;;;5096347;28;20424;-69
2021/06/29 05:01:13;;;;;;;10.60;3.93;;;22.20;85.80;;;;;;5096328;28;20448;-69
2021/06/29 05:03:39;;;;;;;5.63;3.30;;;22.20;85.80;;;;;;5096036;28;20424;-69
2021/06/29 05:06:06;;;;;;;9.43;3.80;;;22.20;85.30;;;;;;5095991;28;20466;-69
2021/06/29 05:08:33;;;;;;;7.90;3.27;;;22.20;85.50;;;;;;5097288;28;20439;-69
2021/06/29 05:11:00;;;;;;;7.97;4.03;;;22.20;85.40;;;;;;5096082;28;20443;-69
2021/06/29 05:13:26;;;;;;;4.70;3.70;;;22.20;85.40;;;;;;5095611;28;21014;-69
2021/06/29 05:15:54;;;;;;;4.87;3.40;;;22.20;84.70;;;;;;5095953;28;20463;-69
2021/06/29 05:18:21;;;;;;;8.03;3.50;;;22.20;84.80;;;;;;5096003;28;20493;-69
2021/06/29 05:20:48;;;;;;;5.43;2.57;;;22.10;84.20;;;;;;5095942;28;20853;-68
2021/06/29 05:23:15;;;;;;;8.10;2.83;;;22.00;84.60;;;;;;5095854;28;20439;-68
2021/06/29 05:25:41;;;;;;;8.37;2.53;;;22.00;85.50;;;;;;5095416;28;20460;-68
2021/06/29 05:28:08;;;;;;;3.73;2.30;;;22.00;85.80;;;;;;5095789;28;20428;-68
2021/06/29 05:30:35;;;;;;;5.43;2.60;;;22.00;85.70;;;;;;5095676;28;20967;-68
2021/06/29 05:33:03;;;;;;;8.10;3.20;;;21.90;85.00;;;;;;5095293;28;20823;-68
2021/06/29 05:35:30;;;;;;;7.33;3.03;;;21.90;86.00;;;;;;5095554;28;20435;-69
2021/06/29 05:37:57;;;;;;;6.13;2.53;;;21.80;85.20;;;;;;5095092;28;20817;-68
2021/06/29 05:40:23;;;;;;;2.90;2.67;;;21.80;86.30;;;;;;5095180;28;20813;-68
2021/06/29 05:42:50;;;;;;;4.40;2.90;;;21.80;86.00;;;;;;5095694;28;20439;-69
2021/06/29 05:45:17;;;;;;;5.97;3.10;;;21.80;85.60;;;;;;5095434;28;20451;-68
2021/06/29 05:47:44;;;;;;;3.83;2.67;;;21.70;85.70;;;;;;5096081;28;20524;-68
2021/06/29 05:50:13;;;;;;;2.73;2.40;;;21.70;85.80;;;;;;5095306;28;20444;-68
2021/06/29 05:52:41;;;;;;;2.83;2.53;;;21.70;86.00;;;;;;5094970;28;20937;-68
2021/06/29 05:55:09;;;;;;;3.50;2.77;;;21.80;86.80;;;;;;5095073;28;20483;-68
2021/06/29 05:57:36;;;;;;;3.43;2.90;;;21.70;85.80;;;;;;5095161;28;20825;-68
2021/06/29 06:00:05;;;;;;;3.63;2.30;;;21.70;86.40;;;;;;5095126;28;20513;-68
2021/06/29 06:02:32;;;;;;;6.30;2.93;;;21.80;86.40;;;;;;5094815;28;20963;-68
2021/06/29 06:04:59;;;;;;;4.57;2.90;;;21.80;85.70;;;;;;5095091;28;20471;-68
2021/06/29 06:07:27;;;;;;;2.77;2.53;;;21.80;86.60;;;;;;5094536;28;20479;-68
2021/06/29 06:09:53;;;;;;;6.63;3.00;;;21.80;86.60;;;;;;5094957;28;20470;-68
2021/06/29 06:12:20;;;;;;;7.73;2.80;;;21.70;86.20;;;;;;5094911;28;20447;-68
2021/06/29 06:14:47;;;;;;;7.80;2.63;;;21.70;86.10;;;;;;5094811;28;20464;-67
2021/06/29 06:17:14;;;;;;;3.90;2.70;;;21.80;87.10;;;;;;5094778;28;20470;-67
2021/06/29 06:19:40;;;;;;;5.07;2.90;;;21.80;86.30;;;;;;5094470;28;20443;-68
2021/06/29 06:22:07;;;;;;;4.37;3.00;;;21.70;86.30;;;;;;5094639;28;20436;-67
2021/06/29 06:24:35;;;;;;;5.57;3.00;;;21.60;86.50;;;;;;5094885;28;20436;-67
2021/06/29 06:27:02;;;;;;;3.37;3.07;;;21.60;87.40;;;;;;5094315;28;20464;-68
2021/06/29 06:29:28;;;;;;;5.57;3.60;;;21.60;86.80;;;;;;5094288;28;21015;-67
2021/06/29 06:31:55;;;;;;;8.13;3.77;;;21.40;86.30;;;;;;5094647;28;20435;-67
2021/06/29 06:34:22;;;;;;;4.00;3.50;;;21.20;87.10;;;;;;5094354;28;20472;-67
2021/06/29 06:36:49;;;;;;;3.70;3.37;;;21.00;88.40;;;;;;5094374;28;20493;-67
2021/06/29 06:39:15;;;;;;;3.60;3.30;;;21.00;89.10;;;;;;5094391;28;20444;-67
2021/06/29 06:41:43;;;;;;;4.30;3.80;;;21.10;88.50;;;;;;5094465;28;20443;-68
2021/06/29 06:44:10;;;;;;;3.97;3.10;;;21.10;89.50;;;;;;5094081;28;20431;-67
2021/06/29 06:46:37;;;;;;;5.10;3.47;;;21.20;90.00;;;;;;5093928;28;20464;-67
2021/06/29 06:49:04;;;;;;;3.67;3.43;;;21.20;87.50;;;;;;5094351;28;20808;-67
2021/06/29 06:51:31;;;;;;;5.10;3.10;;;21.20;87.20;;;;;;5094065;28;20448;-67
2021/06/29 06:53:57;;;;;;;3.63;2.60;;;21.20;87.50;;;;;;5093913;28;20480;-67
2021/06/29 06:56:24;;;;;;;4.17;3.00;;;21.20;87.40;;;;;;5093762;28;20480;-67
2021/06/29 06:58:53;;;;;;;3.87;2.67;;;21.10;86.60;;;;;;5093989;28;20501;-67
2021/06/29 07:01:19;;;;;;;7.20;3.07;;;21.10;87.30;;;;;;5093992;28;20452;-67
2021/06/29 07:03:46;;;;;;;4.10;3.40;;;21.20;86.90;;;;;;5093907;28;20432;-67
2021/06/29 07:06:14;;;;;;;5.47;3.50;;;21.30;87.80;;;;;;5093299;28;20463;-67
2021/06/29 07:08:41;;;;;;;4.00;3.20;;;21.40;88.00;;;;;;5094098;28;20428;-67
2021/06/29 07:11:08;;;;;;;4.53;3.60;;;21.50;86.40;;;;;;5093763;28;20451;-67
2021/06/29 07:13:35;;;;;;;3.90;3.60;;;21.60;86.80;;;;;;5093288;28;20986;-67
2021/06/29 07:16:03;;;;;;;4.97;3.63;;;21.60;85.00;;;;;;5093592;28;20460;-67
2021/06/29 07:18:30;;;;;;;4.00;3.33;;;21.70;86.40;;;;;;5093381;28;21019;-67
2021/06/29 07:20:57;;;;;;;4.50;3.33;;;21.80;84.60;;;;;;5092781;28;20938;-67
2021/06/29 07:23:24;;;;;;;3.73;3.40;;;21.80;85.70;;;;;;5093353;28;20428;-67
2021/06/29 07:25:50;;;;;;;8.13;3.93;;;21.80;85.50;;;;;;5093422;28;20991;-67
2021/06/29 07:28:17;;;;;;;4.70;3.63;;;21.80;85.20;;;;;;5093457;28;20443;-67
2021/06/29 07:30:44;;;;;;;6.60;4.13;;;21.80;84.40;;;;;;5093600;28;20458;-67
2021/06/29 07:33:12;;;;;;;3.73;3.30;;;21.70;83.20;;;;;;5093424;28;20440;-67
2021/06/29 07:35:39;;;;;;;5.70;3.87;;;21.70;84.50;;;;;;5093317;28;20467;-68
2021/06/29 07:38:07;;;;;;;5.90;3.23;;;21.80;85.30;;;;;;5093331;28;20443;-67
2021/06/29 07:40:35;;;;;;;3.40;3.10;;;21.70;84.30;;;;;;5093515;28;20451;-67
2021/06/29 07:43:01;;;;;;;3.93;3.20;;;21.70;83.80;;;;;;5093348;28;20446;-67
2021/06/29 07:45:29;;;;;;;3.47;2.50;;;21.70;85.30;;;;;;5093272;28;20442;-67
2021/06/29 07:48:00;;;;;;;3.87;3.07;;;21.90;85.50;;;;;;5093268;28;20504;-67
2021/06/29 07:50:30;;;;;;;4.17;3.27;;;22.10;86.60;;;;;;5093167;28;20439;-67
2021/06/29 07:52:57;;;;;;;4.27;3.67;;;22.10;82.60;;;;;;5093289;28;20491;-67
2021/06/29 07:55:25;;;;;;;3.50;3.20;;;22.10;82.60;;;;;;5093093;28;20585;-68
2021/06/29 07:57:52;;;;;;;3.07;2.87;;;22.10;82.40;;;;;;5093193;28;20785;-67
2021/06/29 08:00:19;;;;;;;4.70;3.67;;;22.30;82.90;;;;;;5093188;28;20440;-67
2021/06/29 08:02:46;;;;;;;6.37;4.50;;;22.40;82.90;;;;;;5092869;28;20451;-67
2021/06/29 08:05:13;;;;;;;5.93;4.67;;;22.50;81.20;;;;;;5093100;28;20451;-67
2021/06/29 08:07:41;;;;;;;8.10;5.63;;;22.80;83.60;;;;;;5092696;28;20471;-67
2021/06/29 08:10:09;;;;;;;8.40;5.50;;;23.10;80.10;;;;;;5093157;28;20428;-67
2021/06/29 08:12:36;;;;;;;6.70;6.00;;;23.30;78.20;;;;;;5092816;28;20897;-67
2021/06/29 08:15:04;;;;;;;5.00;4.60;;;23.30;77.70;;;;;;5093058;28;20836;-67
2021/06/29 08:17:31;;;;;;;7.10;5.90;;;23.40;78.10;;;;;;5093055;28;20463;-67
2021/06/29 08:19:58;;;;;;;5.17;4.77;;;23.50;78.50;;;;;;5092889;28;20560;-67
2021/06/29 08:22:25;;;;;;;5.80;5.30;;;23.70;77.80;;;;;;5092644;28;20439;-67
2021/06/29 08:24:53;;;;;;;7.57;5.70;;;23.80;76.30;;;;;;5093050;28;20424;-67
2021/06/29 08:27:20;;;;;;;8.73;5.70;;;23.90;77.60;;;;;;5092565;28;20472;-67
2021/06/29 08:29:48;;;;;;;6.20;5.63;;;23.90;75.10;;;;;;5092918;28;20451;-67
2021/06/29 08:32:15;;;;;;;7.07;6.37;;;23.90;76.50;;;;;;5094557;28;20924;-67
2021/06/29 08:34:42;;;;;;;10.13;6.10;;;24.10;77.10;;;;;;5096610;28;20511;-67
2021/06/29 08:37:09;;;;;;;8.93;5.47;;;24.20;75.20;;;;;;5096596;28;20478;-67
2021/06/29 08:39:35;;;;;;;5.63;5.00;;;24.30;75.80;;;;;;5096741;28;20486;-67
2021/06/29 08:42:05;;;;;;;6.27;5.77;;;24.40;75.70;;;;;;5096507;28;20470;-67
2021/06/29 08:44:31;;;;;;;7.03;4.87;;;24.50;74.80;;;;;;5096195;28;20439;-67
2021/06/29 08:46:58;;;;;;;5.40;4.90;;;24.60;74.10;;;;;;5096410;28;20467;-67
2021/06/29 08:49:25;;;;;;;7.83;6.20;;;24.80;74.10;;;;;;5096762;28;20443;-67
2021/06/29 08:51:52;;;;;;;6.60;5.60;;;24.90;71.60;;;;;;5096618;28;20432;-67
2021/06/29 08:54:21;;;;;;;6.67;6.10;;;25.00;72.10;;;;;;5096197;28;20485;-67
2021/06/29 08:56:47;;;;;;;8.73;5.80;;;25.10;70.50;;;;;;5096349;28;20479;-67
2021/06/29 08:59:15;;;;;;;5.90;5.30;;;25.40;72.10;;;;;;5096289;28;20443;-67
2021/06/29 09:01:42;;;;;;;7.73;6.60;;;25.70;69.10;;;;;;5096011;28;20424;-67
2021/06/29 09:04:09;;;;;;;6.90;6.20;;;26.00;68.20;;;;;;5096249;28;20424;-67
2021/06/29 09:06:37;;;;;;;8.20;5.83;;;26.00;66.60;;;;;;5095958;28;20562;-67
2021/06/29 09:09:22;;;;;;;6.07;5.23;;;26.20;67.00;;;;;;5096007;28;20937;-67
2021/06/29 09:11:49;;;;;;;5.90;5.10;;;26.50;66.70;;;;;;5095079;28;20444;-68
2021/06/29 09:14:18;;;;;;;5.50;5.00;;;26.80;65.00;;;;;;5096777;28;20424;-68
2021/06/29 09:16:47;;;;;;;5.93;5.40;;;27.10;63.00;;;;;;5095946;28;20506;-68
2021/06/29 09:19:34;;;;;;;5.97;5.47;;;27.10;61.30;;;;;;5095954;28;20451;-68
2021/06/29 09:22:28;;;;;;;6.20;5.70;;;27.10;60.00;;;;;;5095569;28;20450;-68
2021/06/29 09:24:57;;;;;;;8.30;5.70;;;27.00;61.10;;;;;;5095891;28;20442;-67
2021/06/29 09:27:43;;;;;;;7.53;6.37;;;27.10;63.70;;;;;;5095666;28;20464;-67
2021/06/29 09:30:31;;;;;;;6.77;6.13;;;27.20;63.70;;;;;;5095713;28;20434;-67
2021/06/29 09:33:04;;;;;;;5.97;5.50;;;27.40;62.70;;;;;;5095177;28;20451;-68
2021/06/29 09:35:31;;;;;;;6.90;6.20;;;27.40;59.50;;;;;;5095516;28;20471;-68
2021/06/29 09:37:59;;;;;;;6.83;5.50;;;27.20;60.30;;;;;;5095799;28;20439;-68
2021/06/29 09:40:28;;;;;;;5.97;5.37;;;27.20;59.60;;;;;;5095508;28;20448;-68
2021/06/29 09:43:10;;;;;;;7.77;5.43;;;27.30;60.20;;;;;;5095067;28;20447;-68
2021/06/29 09:45:41;;;;;;;7.33;6.73;;;27.40;60.20;;;;;;5095143;28;20510;-68
2021/06/29 09:48:10;;;;;;;5.83;5.33;;;27.40;60.00;;;;;;5095469;28;20428;-68
2021/06/29 09:50:50;;;;;;;6.83;6.23;;;27.60;59.20;;;;;;5095414;28;20436;-68
2021/06/29 09:53:25;;;;;;;8.40;7.40;;;28.00;59.40;;;;;;5095370;28;20439;-68
2021/06/29 09:55:54;;;;;;;7.93;7.00;;;28.00;58.80;;;;;;5095340;28;20528;-68
2021/06/29 09:58:22;;;;;;;9.07;8.17;;;28.10;59.00;;;;;;5095722;28;20423;-68
2021/06/29 10:00:52;;;;;;;6.63;5.27;;;28.10;57.20;;;;;;5095183;28;20456;-68
2021/06/29 10:03:22;;;;;;;7.67;7.03;;;28.10;57.90;;;;;;5094857;28;20432;-68
2021/06/29 10:05:53;;;;;;;7.70;6.53;;;28.30;58.30;;;;;;5095085;28;20534;-69
2021/06/29 10:08:36;;;;;;;8.40;7.03;;;28.60;57.10;;;;;;5094668;28;20808;-68
2021/06/29 10:11:18;;;;;;;7.30;6.63;;;28.80;57.10;;;;;;5095004;28;20439;-68
2021/06/29 10:14:01;;;;;;;13.43;7.30;;;28.90;55.70;;;;;;5095020;28;20773;-68
2021/06/29 10:16:31;;;;;;;7.30;6.60;;;28.70;55.10;;;;;;5092159;28;20487;-68
2021/06/29 10:21:47;;;;;;;8.43;7.60;;;28.80;54.60;;;;;;5093552;28;20509;-68
2021/06/29 10:24:17;;;;;;;9.10;8.23;;;28.70;54.20;;;;;;5094736;28;20501;-68
2021/06/29 10:26:45;;;;;;;6.43;5.83;;;28.70;54.90;;;;;;5094556;28;20460;-68
2021/06/29 10:29:14;;;;;;;7.40;6.60;;;28.90;53.70;;;;;;5094796;28;20436;-68
2021/06/29 10:31:44;;;;;;;7.53;6.40;;;29.00;53.60;;;;;;5094539;28;20448;-68
2021/06/29 10:34:12;;;;;;;7.13;6.53;;;29.50;53.30;;;;;;5094522;28;20444;-68
2021/06/29 10:36:42;;;;;;;10.60;7.23;;;30.00;52.10;;;;;;5094257;28;20860;-68
2021/06/29 10:39:12;;;;;;;7.43;6.83;;;30.70;51.80;;;;;;5094465;28;20440;-68
2021/06/29 10:41:42;;;;;;;6.20;5.73;;;31.10;49.00;;;;;;5094707;28;20450;-69
2021/06/29 10:44:13;;;;;;;6.50;5.87;;;31.60;47.70;;;;;;5094377;28;20432;-69
2021/06/29 10:46:44;;;;;;;5.40;5.00;;;32.20;45.10;;;;;;5094190;28;20487;-68
2021/06/29 10:49:37;;;;;;;6.37;5.87;;;32.60;43.40;;;;;;5094331;28;20432;-68
2021/06/29 10:52:09;;;;;;;4.90;4.50;;;32.90;43.20;;;;;;5094252;28;20440;-68
2021/06/29 10:54:47;;;;;;;4.67;4.37;;;33.10;42.00;;;;;;5093642;28;20430;-68
2021/06/29 10:57:16;;;;;;;5.13;4.63;;;33.50;38.20;;;;;;5094114;28;20455;-69
2021/06/29 10:59:47;;;;;;;4.70;4.30;;;34.00;40.20;;;;;;5094111;28;20453;-68
2021/06/29 11:02:28;;;;;;;4.70;4.30;;;34.60;38.90;;;;;;5094140;28;20435;-68
2021/06/29 11:04:58;;;;;;;5.37;4.97;;;35.10;38.40;;;;;;5094040;28;20431;-68
2021/06/29 11:07:44;;;;;;;5.77;4.43;;;35.60;38.40;;;;;;5093695;28;20479;-69
2021/06/29 11:10:14;;;;;;;9.33;5.00;;;36.10;34.30;;;;;;5093929;28;20426;-68
2021/06/29 11:12:49;;;;;;;5.13;4.73;;;36.40;35.80;;;;;;5093708;28;20462;-68
2021/06/29 11:15:17;;;;;;;5.67;4.60;;;36.80;34.80;;;;;;5093800;28;20465;-68
2021/06/29 11:17:58;;;;;;;4.00;3.67;;;37.00;33.50;;;;;;5093453;28;21026;-68
2021/06/29 11:20:26;;;;;;;3.30;3.10;;;36.90;31.70;;;;;;5094425;28;20444;-69
2021/06/29 11:23:00;;;;;;;4.03;3.63;;;37.20;34.00;;;;;;5093716;28;20447;-69
2021/06/29 11:25:43;;;;;;;4.20;3.80;;;37.20;32.20;;;;;;5093660;28;20844;-69
2021/06/29 11:28:13;;;;;;;3.57;3.27;;;37.20;31.80;;;;;;5093713;28;20427;-69
2021/06/29 11:31:09;;;;;;;4.57;3.30;;;37.10;33.70;;;;;;5093595;28;20201;-69
2021/06/29 11:33:42;;;;;;;4.50;3.73;;;37.40;33.20;;;;;;5047046;28;20454;-69
2021/06/29 11:36:37;;;;;;;3.90;3.53;;;38.00;32.70;;;;;;5093210;28;20311;-69
2021/06/29 11:39:29;;;;;;;5.00;3.47;;;37.80;30.20;;;;;;5093377;28;20654;-69
2021/06/29 11:41:57;;;;;;;6.30;3.40;;;37.20;30.30;;;;;;5093606;28;20201;-69
2021/06/29 11:44:45;;;;;;;4.77;3.40;;;36.20;34.00;;;;;;5093520;28;20447;-69
2021/06/29 11:47:14;;;;;;;2.83;2.50;;;36.20;33.50;;;;;;5093477;28;20463;-69
2021/06/29 11:49:44;;;;;;;3.73;2.40;;;36.70;33.60;;;;;;5093497;28;20431;-69
2021/06/29 11:52:27;;;;;;;4.80;2.97;;;36.60;31.50;;;;;;5093504;28;20431;-69
2021/06/29 11:55:00;;;;;;;4.30;2.90;;;36.50;33.60;;;;;;5093452;28;20485;-69
2021/06/29 11:57:29;;;;;;;2.93;2.73;;;36.30;33.00;;;;;;5093370;28;20467;-69
2021/06/29 11:59:58;;;;;;;3.40;3.10;;;35.70;34.40;;;;;;5093599;28;20447;-69
2021/06/29 12:02:26;;;;;;;3.00;2.67;;;35.10;35.40;;;;;;5093328;28;20804;-69
2021/06/29 12:04:56;;;;;;;3.23;2.67;;;35.60;36.60;;;;;;5093328;28;20447;-69
2021/06/29 12:07:32;;;;;;;3.03;2.83;;;36.00;34.10;;;;;;5097118;28;20471;-69
2021/06/29 12:09:59;;;;;;;3.70;3.23;;;35.90;32.90;;;;;;5097350;28;20446;-69
2021/06/29 12:12:28;;;;;;;5.70;3.07;;;35.40;34.70;;;;;;5097302;28;20427;-69
2021/06/29 12:15:02;;;;;;;2.60;2.40;;;35.60;34.60;;;;;;5097195;28;20453;-69
2021/06/29 12:17:29;;;;;;;4.50;2.40;;;36.30;36.00;;;;;;5097026;28;20492;-69
2021/06/29 12:20:04;;;;;;;6.80;3.43;;;37.30;31.60;;;;;;5097138;28;20424;-69
2021/06/29 12:22:32;;;;;;;4.03;3.73;;;38.00;30.20;;;;;;5097365;28;20181;-67
2021/06/29 12:24:59;;;;;;;4.00;3.53;;;38.60;31.20;;;;;;5097034;28;20201;-67
2021/06/29 12:27:26;;;;;;;4.93;3.10;;;39.00;29.30;;;;;;5096684;28;20698;-67
2021/06/29 12:29:53;;;;;;;3.08;2.88;;;38.80;29.60;;;;;;5097014;28;20205;-67
2021/06/29 12:32:23;;;;;;;3.23;3.03;;;38.50;28.00;;;;;;5096880;28;20234;-67
2021/06/29 12:34:50;;;;;;;3.40;3.10;;;38.30;28.90;;;;;;5096888;28;20295;-68
2021/06/29 12:37:18;;;;;;;2.90;2.70;;;38.70;28.30;;;;;;5096687;28;20232;-67
2021/06/29 12:39:45;;;;;;;3.05;2.85;;;39.00;28.50;;;;;;5096734;28;20208;-67
2021/06/29 12:42:14;;;;;;;2.35;2.15;;;39.30;29.40;;;;;;5096439;28;20725;-67
2021/06/29 12:44:41;;;;;;;3.63;2.55;;;39.80;28.00;;;;;;5096617;28;20204;-67
2021/06/29 12:47:13;;;;;;;2.97;2.78;;;40.30;27.60;;;;;;5096670;28;20240;-67
2021/06/29 12:49:41;;;;;;;3.45;3.15;;;40.20;28.30;;;;;;5096893;28;20208;-67
2021/06/29 12:52:10;;;;;;;3.75;3.45;;;40.80;28.80;;;;;;5096372;28;20685;-67
2021/06/29 12:54:39;;;;;;;3.90;3.13;;;41.60;26.40;;;;;;5096571;28;20190;-67
2021/06/29 12:57:07;;;;;;;4.65;2.45;;;41.50;25.90;;;;;;5095992;28;20682;-67
2021/06/29 12:59:36;;;;;;;3.22;2.90;;;41.60;26.20;;;;;;5096399;28;20605;-67